KDYS/DYS METAR and TAF weather

Enter ICAO airport designator
Station Type Date Time Source
KDYS METAR 2022/08/12 14:56 UTC NOAA

KDYS 121456Z AUTO 02005KT 10SM CLR 30/15 A3009 RMK AO2 SLP137 T02960153 52007 $


Station Type Date Time Source
KDYS Decoded METAR 2022/08/12 14:56 UTC NOAA

Abilene, Dyess Air Force Base, TX, United States (KDYS) 32-25-12N 099-51-25W
Aug 12, 2022 - 10:56 AM EDT / 2022.08.12 1456 UTC
Wind: from the NNE (020 degrees) at 6 MPH (5 KT):0
Visibility: 10 mile(s):0
Sky conditions: clear
Temperature: 85.3 F (29.6 C)
Dew Point: 59.5 F (15.3 C)
Relative Humidity: 41%
Pressure (altimeter): 30.09 in. Hg (1018 hPa)
Pressure tendency: 0.02 inches (0.7 hPa) higher than three hours ago
ob: KDYS 121456Z AUTO 02005KT 10SM CLR 30/15 A3009 RMK AO2 SLP137 T02960153 52007
cycle: 15

Station Type Date Time Source
KDYS TAF 2022/08/12 12:03 UTC NOAA

TAF KDYS 121200Z 1212/1318 VRB06KT 9999 FEW100 QNH2994INS
BECMG 1303/1304 VRB06KT 9999 SCT070 QNH3000INS TX36/1221Z TN20/1212Z

Example: see airport list